Terminal Aerodrome Forecast
Issued by NWS

Home | Current Version | Previous Version | Text Only | Print | Product List | Glossary Off
Versions: 1 2 3 4 5 6 7 8 9 10 11 12 13 14 15

000
FTUS43 KFGF 272111 AAA
TAFBJI
TAF AMD
KBJI 272111Z 2721/2818 34011G20KT P6SM BKN021 OVC026
     FM272300 31009KT P6SM BKN025
     FM281600 33010KT P6SM BKN035=

USA.gov is the U.S. government's official web portal to all federal, state and local government web resources and services.